Time;durP1;ratioP1;P1;durP2;ratioP2;P2;SDS_P1;SDS_P2;PMS_P1;PMS_P2;Temp;Humidity;BMP_temperature;BMP_pressure;BME280_temperature;BME280_humidity;BME280_pressure;Samples;Min_cycle;Max_cycle;Signal;HPM_P1;HPM_P2
2022/05/26 00:01:24;;;;;;;6.70;4.77;;;16.60;81.90;;;;;;5073633;28;20182;-80
2022/05/26 00:03:52;;;;;;;6.47;4.43;;;16.60;82.00;;;;;;5072175;28;20240;-82
2022/05/26 00:06:22;;;;;;;5.77;4.23;;;16.50;81.40;;;;;;5072757;28;20204;-78
2022/05/26 00:08:50;;;;;;;7.03;4.63;;;16.30;81.80;;;;;;5072830;28;20171;-79
2022/05/26 00:11:28;;;;;;;9.77;4.40;;;16.30;82.10;;;;;;5084274;28;20199;-80
2022/05/26 00:13:56;;;;;;;5.90;4.53;;;16.30;81.90;;;;;;5072496;28;20170;-79
2022/05/26 00:16:24;;;;;;;6.17;4.50;;;16.20;82.10;;;;;;5073210;28;20180;-80
2022/05/26 00:18:52;;;;;;;5.80;4.87;;;16.30;81.80;;;;;;5072118;28;20180;-82
2022/05/26 00:21:20;;;;;;;8.07;4.63;;;16.40;81.80;;;;;;5074867;28;20254;-81
2022/05/26 00:23:48;;;;;;;7.13;4.30;;;16.50;81.10;;;;;;5071726;28;20589;-79
2022/05/26 00:26:15;;;;;;;7.17;4.73;;;16.50;80.70;;;;;;5072020;28;20569;-79
2022/05/26 00:28:43;;;;;;;5.87;4.33;;;16.50;80.50;;;;;;5072629;28;20207;-78
2022/05/26 00:31:10;;;;;;;6.30;3.70;;;16.60;79.90;;;;;;5072125;28;20274;-82
2022/05/26 00:33:37;;;;;;;5.03;3.20;;;16.70;79.80;;;;;;5074136;28;20638;-77
2022/05/26 00:36:07;;;;;;;7.63;3.77;;;16.80;79.30;;;;;;5090009;28;20169;-80
2022/05/26 00:38:35;;;;;;;6.63;3.90;;;16.90;78.70;;;;;;5072339;28;20579;-80
2022/05/26 00:41:04;;;;;;;5.27;3.50;;;17.00;79.00;;;;;;5072366;28;20167;-79
2022/05/26 00:43:32;;;;;;;7.17;3.20;;;17.00;78.20;;;;;;5072416;28;20220;-82
2022/05/26 00:46:24;;;;;;;4.63;3.70;;;17.10;78.50;;;;;;5071381;28;20287;-80
2022/05/26 00:48:57;;;;;;;7.97;3.93;;;17.30;77.90;;;;;;5071697;28;20201;-79
2022/05/26 00:51:36;;;;;;;8.77;4.53;;;17.50;77.30;;;;;;5079900;28;20184;-76
2022/05/26 00:54:14;;;;;;;11.10;4.23;;;17.60;77.20;;;;;;5071997;28;20173;-79
2022/05/26 00:57:18;;;;;;;6.07;3.40;;;17.60;77.30;;;;;;5071644;28;20511;-80
2022/05/26 01:00:00;;;;;;;5.67;3.90;;;17.80;75.90;;;;;;5072449;28;20265;-78
2022/05/26 01:02:33;;;;;;;3.83;3.17;;;18.00;75.70;;;;;;5072778;28;20205;-78
2022/05/26 01:05:14;;;;;;;4.60;2.97;;;18.10;75.10;;;;;;5071991;28;20260;-79
2022/05/26 01:07:42;;;;;;;4.63;2.70;;;18.20;75.00;;;;;;5075704;28;20223;-79
2022/05/26 01:10:12;;;;;;;5.70;2.73;;;18.30;74.50;;;;;;5073408;28;20476;-79
2022/05/26 01:12:40;;;;;;;5.23;3.27;;;18.60;75.20;;;;;;5074989;28;20675;-80
2022/05/26 01:15:15;;;;;;;6.80;2.80;;;18.70;74.50;;;;;;5072079;28;20241;-79
2022/05/26 01:18:09;;;;;;;6.27;3.10;;;18.80;74.50;;;;;;5059440;28;20537;-77
2022/05/26 01:20:54;;;;;;;4.77;2.73;;;18.80;74.10;;;;;;5068914;28;20221;-79
2022/05/26 01:24:01;;;;;;;6.03;3.20;;;19.10;73.00;;;;;;5072366;28;20216;-80
2022/05/26 01:26:40;;;;;;;4.43;2.80;;;19.30;72.60;;;;;;5075582;28;20222;-76
2022/05/26 01:29:21;;;;;;;6.70;2.70;;;19.60;71.40;;;;;;5074920;28;20171;-77
2022/05/26 01:32:09;;;;;;;7.57;3.03;;;19.70;71.60;;;;;;5070494;28;20206;-74
2022/05/26 01:35:11;;;;;;;8.93;3.80;;;19.80;70.50;;;;;;5054683;28;20263;-77
2022/05/26 01:38:03;;;;;;;4.13;2.60;;;19.80;70.90;;;;;;5070845;28;20175;-77
2022/05/26 01:40:52;;;;;;;4.47;2.80;;;19.70;70.40;;;;;;5080604;28;20179;-77
2022/05/26 01:43:25;;;;;;;5.63;2.90;;;19.80;70.40;;;;;;5091659;28;20234;-75
2022/05/26 01:46:03;;;;;;;4.53;2.77;;;19.90;71.30;;;;;;5089992;28;20187;-76
2022/05/26 01:48:46;;;;;;;5.30;2.20;;;20.30;70.40;;;;;;5074549;28;20516;-79
2022/05/26 01:51:21;;;;;;;3.30;2.00;;;20.60;69.00;;;;;;5060840;28;20718;-79
2022/05/26 01:54:09;;;;;;;5.97;2.20;;;20.80;67.40;;;;;;5074642;28;20205;-81
2022/05/26 01:56:59;;;;;;;4.23;2.00;;;20.60;67.60;;;;;;5075765;28;20314;-82
2022/05/26 01:59:30;;;;;;;2.80;1.80;;;20.50;67.70;;;;;;5084864;28;20598;-80
2022/05/26 02:02:03;;;;;;;5.57;2.23;;;20.50;68.40;;;;;;5074034;28;20180;-76
2022/05/26 02:04:38;;;;;;;3.60;1.93;;;20.50;69.40;;;;;;5074196;28;20179;-77
2022/05/26 02:07:22;;;;;;;6.03;1.90;;;20.40;69.80;;;;;;5080659;28;20297;-76
2022/05/26 02:09:50;;;;;;;3.60;1.63;;;20.50;69.30;;;;;;5094648;28;20171;-77
2022/05/26 02:12:37;;;;;;;9.63;6.43;;;20.40;67.40;;;;;;5093638;28;20178;-77
2022/05/26 02:15:17;;;;;;;7.40;3.27;;;20.60;69.30;;;;;;5091185;28;20186;-76
2022/05/26 02:18:00;;;;;;;4.17;2.20;;;20.90;67.80;;;;;;5073014;28;20178;-77
2022/05/26 02:20:52;;;;;;;3.43;2.20;;;20.90;67.80;;;;;;5073974;28;20178;-76
2022/05/26 02:23:34;;;;;;;3.70;1.77;;;21.30;67.00;;;;;;5072057;28;20191;-77
2022/05/26 02:26:03;;;;;;;4.77;2.30;;;21.80;64.70;;;;;;5072615;28;20216;-75
2022/05/26 02:29:51;;;;;;;3.80;1.73;;;21.90;64.50;;;;;;5072672;28;20178;-77
2022/05/26 02:31:24;;;;;;;3.80;1.90;;;21.50;65.20;;;;;;5075385;28;20769;-74
2022/05/26 02:33:59;;;;;;;4.03;1.93;;;21.30;65.50;;;;;;5068772;28;20246;-77
2022/05/26 02:36:31;;;;;;;4.20;1.80;;;21.50;65.30;;;;;;5060914;28;20593;-76
2022/05/26 04:49:46;;;;;;;3.03;1.60;;;25.00;57.30;;;;;;5020536;27;21070;-77
2022/05/26 04:52:17;;;;;;;5.00;1.40;;;25.70;54.40;;;;;;5009757;28;20177;-77
2022/05/26 04:54:45;;;;;;;4.23;2.13;;;26.00;54.10;;;;;;5007915;28;20185;-77
2022/05/26 04:57:15;;;;;;;4.67;1.70;;;25.80;54.40;;;;;;5009073;28;22161;-75
2022/05/26 04:59:42;;;;;;;2.23;1.37;;;25.60;54.10;;;;;;5005382;28;20249;-78
2022/05/26 05:02:15;;;;;;;3.23;1.50;;;25.50;55.20;;;;;;5008440;28;20256;-77
2022/05/26 05:04:44;;;;;;;5.73;1.70;;;25.50;54.50;;;;;;5008134;28;20181;-79
2022/05/26 05:07:14;;;;;;;4.27;1.40;;;25.20;56.00;;;;;;5008521;28;20239;-78
2022/05/26 05:09:42;;;;;;;4.13;1.57;;;24.80;57.60;;;;;;5007599;28;20197;-79
2022/05/26 05:12:13;;;;;;;3.80;1.70;;;24.80;57.70;;;;;;5008150;28;20545;-78
2022/05/26 05:14:44;;;;;;;4.20;1.40;;;25.20;56.00;;;;;;5009859;28;20180;-79
2022/05/26 05:17:12;;;;;;;3.23;1.83;;;25.60;55.10;;;;;;5009364;28;20181;-79
2022/05/26 05:19:40;;;;;;;3.33;1.37;;;25.60;55.50;;;;;;5009973;28;20205;-79
2022/05/26 05:22:30;;;;;;;3.80;1.30;;;25.80;54.50;;;;;;5027313;28;20184;-77
2022/05/26 05:25:08;;;;;;;4.33;1.40;;;25.10;56.60;;;;;;5026015;28;20239;-80
2022/05/26 05:27:54;;;;;;;3.33;1.50;;;25.30;56.60;;;;;;5007688;28;20572;-79
2022/05/26 05:30:39;;;;;;;6.77;1.97;;;25.10;56.80;;;;;;5009180;28;20216;-78
2022/05/26 05:33:18;;;;;;;6.87;1.53;;;24.90;56.70;;;;;;5009128;28;20180;-76
2022/05/26 05:35:59;;;;;;;2.57;1.27;;;25.20;56.70;;;;;;5008503;28;20197;-77
2022/05/26 05:38:27;;;;;;;5.67;1.40;;;25.00;57.00;;;;;;5001002;28;20268;-79
2022/05/26 05:40:55;;;;;;;6.67;1.40;;;24.90;58.00;;;;;;5000939;28;20170;-78
2022/05/26 05:43:22;;;;;;;2.87;1.37;;;25.40;56.50;;;;;;5009272;28;20186;-78
2022/05/26 05:45:50;;;;;;;5.17;1.80;;;25.30;57.50;;;;;;5007238;28;20181;-77
2022/05/26 05:48:17;;;;;;;5.90;1.50;;;25.30;56.40;;;;;;5008935;28;20335;-79
2022/05/26 05:50:45;;;;;;;5.17;1.27;;;25.40;56.00;;;;;;5000028;28;20735;-77
2022/05/26 05:53:12;;;;;;;11.13;1.80;;;24.80;57.50;;;;;;4995033;28;20178;-79
2022/05/26 05:55:40;;;;;;;2.33;1.20;;;24.80;58.10;;;;;;4994420;28;20213;-77
2022/05/26 05:58:08;;;;;;;5.10;1.60;;;24.60;59.00;;;;;;4996244;28;20198;-80
2022/05/26 06:00:36;;;;;;;8.10;1.60;;;24.70;58.90;;;;;;4995915;28;20174;-79
2022/05/26 06:03:04;;;;;;;4.50;1.50;;;24.70;58.90;;;;;;4995399;28;20517;-80
2022/05/26 06:05:32;;;;;;;4.20;1.70;;;24.80;58.80;;;;;;4998553;28;20643;-79
2022/05/26 06:08:00;;;;;;;6.50;1.60;;;24.00;60.20;;;;;;4997462;28;20197;-80
2022/05/26 06:10:29;;;;;;;5.97;1.63;;;23.30;62.60;;;;;;4990204;28;20190;-78
2022/05/26 06:12:57;;;;;;;7.63;2.00;;;22.40;65.60;;;;;;4995431;28;20173;-79
2022/05/26 06:15:25;;;;;;;10.37;3.80;;;21.80;68.10;;;;;;5010637;28;20283;-79
2022/05/26 06:17:53;;;;;;;9.67;2.70;;;21.60;68.90;;;;;;4995413;28;20233;-79
2022/05/26 06:20:20;;;;;;;8.00;2.23;;;21.30;70.40;;;;;;4995325;28;20181;-78
2022/05/26 06:22:49;;;;;;;4.10;1.87;;;21.10;71.10;;;;;;4994709;28;20178;-79
2022/05/26 06:25:18;;;;;;;11.47;3.83;;;20.80;72.40;;;;;;4995090;28;20196;-80
2022/05/26 06:30:32;;;;;;;7.87;2.20;;;20.50;73.90;;;;;;4995901;28;20176;-79
2022/05/26 06:38:37;;;;;;;5.57;2.83;;;19.90;76.10;;;;;;5011305;28;20268;-79
2022/05/26 06:43:52;;;;;;;4.67;2.10;;;19.70;77.30;;;;;;5014224;28;20226;-79
2022/05/26 06:46:20;;;;;;;10.43;2.27;;;19.50;77.60;;;;;;5014369;28;20639;-79
2022/05/26 06:48:48;;;;;;;4.97;2.10;;;19.40;77.80;;;;;;5014036;28;20287;-78
2022/05/26 06:51:16;;;;;;;7.13;2.20;;;19.30;78.40;;;;;;4990522;28;20694;-78
2022/05/26 06:53:43;;;;;;;8.63;2.27;;;19.20;78.80;;;;;;4992793;28;20182;-79
2022/05/26 06:56:11;;;;;;;5.07;2.47;;;19.10;79.10;;;;;;4992715;28;20201;-78
2022/05/26 06:58:39;;;;;;;4.90;2.10;;;19.10;79.50;;;;;;4994618;28;20269;-79
2022/05/26 07:01:06;;;;;;;5.50;1.90;;;18.90;80.10;;;;;;4993458;28;20175;-78
2022/05/26 07:03:34;;;;;;;6.67;2.50;;;18.90;80.60;;;;;;4994688;28;20620;-79
2022/05/26 07:06:02;;;;;;;7.57;2.17;;;18.80;80.90;;;;;;5008562;28;20189;-79
2022/05/26 07:08:29;;;;;;;3.40;1.80;;;18.80;81.10;;;;;;5005281;28;20292;-80
2022/05/26 07:11:00;;;;;;;6.97;2.37;;;18.70;81.40;;;;;;4994012;28;20191;-79
2022/05/26 07:13:29;;;;;;;7.47;2.27;;;18.70;81.90;;;;;;4994615;28;20284;-80
2022/05/26 07:15:56;;;;;;;9.03;2.80;;;18.60;82.00;;;;;;4994512;28;20357;-79
2022/05/26 07:18:24;;;;;;;7.90;2.30;;;18.50;82.30;;;;;;4993953;28;20212;-79
2022/05/26 07:20:51;;;;;;;6.27;2.07;;;18.50;82.40;;;;;;4994020;28;20174;-79
2022/05/26 07:23:19;;;;;;;7.60;2.20;;;18.40;82.60;;;;;;5000037;28;20190;-80
2022/05/26 07:25:46;;;;;;;6.13;2.13;;;18.40;82.90;;;;;;4999344;28;20177;-80
2022/05/26 07:28:13;;;;;;;5.60;1.90;;;18.40;83.20;;;;;;4982067;28;20261;-80
2022/05/26 07:30:42;;;;;;;5.83;1.90;;;18.30;83.30;;;;;;4994021;28;20635;-80
2022/05/26 07:33:10;;;;;;;5.00;2.17;;;18.30;83.50;;;;;;4994144;28;20181;-79
2022/05/26 07:35:38;;;;;;;6.40;2.50;;;18.30;83.40;;;;;;4993988;28;20208;-78
2022/05/26 07:44:01;;;;;;;6.57;2.57;;;18.20;83.80;;;;;;4992719;28;20192;-79
2022/05/26 07:46:29;;;;;;;5.87;2.10;;;18.10;83.70;;;;;;5002457;28;20184;-80
2022/05/26 07:48:56;;;;;;;3.13;2.07;;;18.10;83.80;;;;;;4982135;28;20234;-79
2022/05/26 07:51:24;;;;;;;7.47;2.60;;;18.10;84.00;;;;;;4992972;28;20231;-78
2022/05/26 07:53:52;;;;;;;7.63;2.43;;;18.00;84.10;;;;;;5013199;28;20173;-80
2022/05/26 07:56:21;;;;;;;5.30;2.17;;;17.90;84.40;;;;;;5012846;28;20254;-79
2022/05/26 07:58:48;;;;;;;5.70;2.30;;;17.90;84.50;;;;;;5002611;28;20212;-80
2022/05/26 08:01:16;;;;;;;8.17;2.20;;;18.00;84.70;;;;;;5000420;28;20198;-79
2022/05/26 08:03:46;;;;;;;5.30;2.67;;;17.80;84.70;;;;;;4992434;28;20636;-78
2022/05/26 08:06:14;;;;;;;5.97;2.57;;;17.80;84.90;;;;;;5013233;28;20211;-78
2022/05/26 08:08:42;;;;;;;5.97;2.57;;;17.80;85.10;;;;;;5003121;28;20197;-77
2022/05/26 08:11:09;;;;;;;11.50;2.57;;;17.80;85.20;;;;;;4993278;28;20187;-77
2022/05/26 08:13:37;;;;;;;9.40;3.00;;;17.80;85.40;;;;;;5002754;28;20177;-79
2022/05/26 08:16:05;;;;;;;10.57;3.20;;;17.70;85.60;;;;;;4993349;28;20234;-77
2022/05/26 08:18:34;;;;;;;10.40;3.60;;;17.70;85.70;;;;;;4993600;28;20174;-80
2022/05/26 08:21:13;;;;;;;7.73;3.00;;;17.70;85.80;;;;;;4993289;28;20185;-80
2022/05/26 08:23:41;;;;;;;9.90;3.40;;;17.60;85.90;;;;;;4993274;28;20180;-79
2022/05/26 08:26:08;;;;;;;9.37;2.80;;;17.60;86.00;;;;;;4992098;28;20217;-78
2022/05/26 08:28:36;;;;;;;9.70;3.37;;;17.60;86.20;;;;;;4989530;28;20232;-80
2022/05/26 08:31:04;;;;;;;10.70;3.90;;;17.60;86.10;;;;;;4979919;28;20639;-80
2022/05/26 08:33:32;;;;;;;6.17;2.90;;;17.60;86.20;;;;;;4986548;28;20636;-80
2022/05/26 08:36:11;;;;;;;6.97;3.37;;;17.50;86.30;;;;;;4992606;28;20188;-80
2022/05/26 08:38:40;;;;;;;8.37;2.67;;;17.50;86.60;;;;;;4993623;28;20624;-78
2022/05/26 08:41:12;;;;;;;6.27;3.20;;;17.50;86.70;;;;;;4976092;28;20237;-78
2022/05/26 08:43:46;;;;;;;11.10;3.87;;;17.40;86.90;;;;;;4974051;28;20715;-78
2022/05/26 08:46:17;;;;;;;11.60;4.20;;;17.40;87.10;;;;;;4974510;28;20820;-76
2022/05/26 08:48:51;;;;;;;10.67;3.80;;;17.30;87.10;;;;;;4987060;28;20251;-76
2022/05/26 08:51:46;;;;;;;12.93;4.40;;;17.30;87.20;;;;;;4993553;28;20176;-76
2022/05/26 08:54:20;;;;;;;12.70;3.93;;;17.30;87.30;;;;;;4992836;28;20284;-77
2022/05/26 08:56:48;;;;;;;11.00;4.00;;;17.30;87.40;;;;;;4991876;28;20185;-76
2022/05/26 08:59:18;;;;;;;14.67;4.57;;;17.20;87.50;;;;;;4994634;28;20647;-78
2022/05/26 09:01:45;;;;;;;7.27;3.13;;;17.20;87.50;;;;;;4991164;28;20229;-78
2022/05/26 09:04:13;;;;;;;10.00;3.50;;;17.20;87.50;;;;;;4992800;28;20191;-79
2022/05/26 09:15:17;;;;;;;9.77;3.77;;;17.20;87.60;;;;;;4993544;28;20613;-80
2022/05/26 09:17:45;;;;;;;6.93;3.83;;;17.20;87.80;;;;;;4996098;28;20624;-81
2022/05/26 09:20:38;;;;;;;9.70;3.87;;;17.10;87.80;;;;;;4989198;28;20632;-82
2022/05/26 09:23:23;;;;;;;11.90;4.03;;;17.10;88.10;;;;;;4989439;28;20185;-82
2022/05/26 09:26:03;;;;;;;9.13;4.00;;;17.10;88.00;;;;;;4996796;28;20549;-81
2022/05/26 09:28:41;;;;;;;11.17;3.90;;;17.00;88.10;;;;;;4995674;28;20220;-82
2022/05/26 09:31:34;;;;;;;11.77;4.27;;;17.00;88.20;;;;;;4996526;28;20175;-80
2022/05/26 09:34:04;;;;;;;8.70;4.10;;;16.90;88.20;;;;;;5005710;28;20272;-80
2022/05/26 09:36:36;;;;;;;8.73;4.60;;;16.80;88.30;;;;;;4995960;28;20535;-82
2022/05/26 09:39:05;;;;;;;7.83;4.00;;;16.80;88.30;;;;;;4994768;28;20178;-81
2022/05/26 09:41:44;;;;;;;10.37;4.07;;;16.70;88.30;;;;;;4982619;28;20751;-80
2022/05/26 09:44:29;;;;;;;13.03;4.63;;;16.60;88.40;;;;;;4993172;28;20185;-79
2022/05/26 09:47:01;;;;;;;13.07;4.73;;;16.60;88.70;;;;;;4995835;28;20178;-82
2022/05/26 09:49:34;;;;;;;12.33;4.90;;;16.60;88.80;;;;;;4995685;28;20229;-80
2022/05/26 09:52:13;;;;;;;11.00;5.67;;;16.50;89.00;;;;;;4996089;28;20253;-82
2022/05/26 09:54:40;;;;;;;8.57;5.07;;;16.60;89.20;;;;;;4995783;28;20722;-80
2022/05/26 09:57:17;;;;;;;12.27;5.03;;;16.50;89.20;;;;;;4999914;28;20179;-80
2022/05/26 09:59:46;;;;;;;10.77;4.90;;;16.50;89.10;;;;;;4996154;28;20177;-81
2022/05/26 10:02:15;;;;;;;11.93;5.07;;;16.50;89.30;;;;;;4995339;28;20265;-82
2022/05/26 10:05:16;;;;;;;11.47;4.27;;;16.40;89.30;;;;;;4995479;28;20532;-83
2022/05/26 10:08:01;;;;;;;11.37;4.83;;;16.30;89.30;;;;;;4995130;28;20361;-83
2022/05/26 10:10:41;;;;;;;7.47;4.00;;;16.30;89.30;;;;;;4989372;28;20188;-82
2022/05/26 10:13:27;;;;;;;7.57;4.03;;;16.30;89.40;;;;;;4992908;28;20189;-82
2022/05/26 10:16:33;;;;;;;24.13;14.77;;;16.30;89.50;;;;;;4995619;28;20656;-81
2022/05/26 10:19:18;;;;;;;9.07;4.23;;;16.30;89.60;;;;;;4988975;28;20192;-79
2022/05/26 10:21:58;;;;;;;11.63;3.70;;;16.50;89.70;;;;;;4995145;28;20188;-78
2022/05/26 10:24:34;;;;;;;9.80;3.40;;;16.50;89.30;;;;;;4995030;28;20189;-77
2022/05/26 10:27:28;;;;;;;7.97;3.43;;;16.60;89.10;;;;;;4992031;28;20192;-79
2022/05/26 10:30:20;;;;;;;7.43;3.60;;;16.60;89.00;;;;;;5007247;28;20217;-78
2022/05/26 10:32:50;;;;;;;7.73;3.90;;;16.60;89.00;;;;;;4994868;28;20243;-79
2022/05/26 10:35:31;;;;;;;9.20;4.80;;;16.50;88.90;;;;;;4990155;28;20256;-81
2022/05/26 10:38:11;;;;;;;13.17;4.33;;;16.60;88.90;;;;;;4998544;28;20206;-79
2022/05/26 10:40:58;;;;;;;11.40;4.80;;;16.50;88.70;;;;;;4988584;28;20195;-79
2022/05/26 10:43:27;;;;;;;10.30;4.43;;;16.50;88.90;;;;;;4992553;28;20203;-79
2022/05/26 10:45:55;;;;;;;10.47;5.40;;;16.40;88.90;;;;;;4993712;28;20261;-79
2022/05/26 10:48:45;;;;;;;9.87;4.30;;;16.30;89.00;;;;;;4994794;28;20712;-79
2022/05/26 10:51:31;;;;;;;13.87;5.17;;;16.30;89.10;;;;;;4994643;28;20624;-80
2022/05/26 10:54:25;;;;;;;11.00;4.17;;;16.20;89.20;;;;;;4992800;28;20187;-77
2022/05/26 10:56:57;;;;;;;14.77;5.03;;;16.10;89.10;;;;;;4991249;28;20179;-77
2022/05/26 10:59:45;;;;;;;10.90;4.23;;;16.00;89.60;;;;;;4984371;28;20191;-77
2022/05/26 11:02:33;;;;;;;9.77;4.53;;;16.00;89.50;;;;;;4984033;28;20261;-80
2022/05/26 11:05:17;;;;;;;12.10;5.23;;;16.00;89.70;;;;;;5013437;28;20252;-77
2022/05/26 11:07:55;;;;;;;15.63;8.67;;;15.90;89.70;;;;;;5014159;28;20247;-77
2022/05/26 11:10:42;;;;;;;9.97;5.17;;;15.90;90.10;;;;;;5009022;28;20240;-79
2022/05/26 11:13:34;;;;;;;10.57;4.37;;;15.90;90.10;;;;;;4994744;28;20620;-77
2022/05/26 11:19:40;;;;;;;8.20;4.27;;;15.80;90.40;;;;;;4994466;28;20644;-78
2022/05/26 11:22:10;;;;;;;8.57;4.00;;;15.70;90.30;;;;;;4996023;28;20242;-77
2022/05/26 11:24:39;;;;;;;8.63;4.40;;;15.70;90.40;;;;;;5012895;28;20252;-77
2022/05/26 11:27:11;;;;;;;11.53;5.27;;;15.70;90.40;;;;;;5010583;28;20180;-76
2022/05/26 11:29:52;;;;;;;11.17;4.23;;;15.70;90.40;;;;;;5001314;28;20183;-76
2022/05/26 11:38:28;;;;;;;12.57;6.20;;;15.60;90.60;;;;;;4993514;28;20226;-78
2022/05/26 11:41:03;;;;;;;23.93;15.63;;;15.50;90.80;;;;;;4993165;28;20183;-79
2022/05/26 11:43:58;;;;;;;10.60;7.20;;;15.60;90.90;;;;;;4993971;28;20189;-79
2022/05/26 11:46:47;;;;;;;16.00;6.10;;;15.60;91.00;;;;;;4993861;28;20184;-80
2022/05/26 11:49:48;;;;;;;11.23;6.20;;;15.60;91.00;;;;;;5013667;28;20228;-81
2022/05/26 11:52:27;;;;;;;14.77;6.20;;;15.50;91.00;;;;;;5001956;28;20192;-78
2022/05/26 11:54:55;;;;;;;10.67;5.70;;;15.50;91.10;;;;;;4992564;28;20254;-79
2022/05/26 11:57:48;;;;;;;13.90;5.87;;;15.50;91.00;;;;;;4993751;28;20200;-78
2022/05/26 12:00:16;;;;;;;12.27;5.83;;;15.50;91.20;;;;;;4994850;28;20201;-80
2022/05/26 12:02:45;;;;;;;8.63;5.57;;;15.50;91.40;;;;;;5007338;28;20220;-80
2022/05/26 12:05:45;;;;;;;13.13;5.70;;;15.50;91.50;;;;;;4997008;28;20189;-79
2022/05/26 12:08:32;;;;;;;12.13;5.77;;;15.50;91.30;;;;;;4983938;28;20652;-79
2022/05/26 12:11:07;;;;;;;8.77;5.90;;;15.50;91.40;;;;;;4998549;28;20189;-78
2022/05/26 12:13:38;;;;;;;12.20;5.97;;;15.50;91.50;;;;;;5012233;28;20179;-80
2022/05/26 12:16:20;;;;;;;8.47;5.67;;;15.40;91.30;;;;;;4992517;28;20241;-79
2022/05/26 12:18:56;;;;;;;11.13;5.73;;;15.30;91.50;;;;;;4993399;28;20188;-79
2022/05/26 12:22:15;;;;;;;9.67;5.73;;;15.30;91.40;;;;;;4993044;28;20221;-78
2022/05/26 12:24:50;;;;;;;13.77;6.50;;;15.40;91.80;;;;;;4959335;28;20196;-79
2022/05/26 12:27:53;;;;;;;13.07;6.60;;;15.50;91.80;;;;;;4968069;28;20192;-80
2022/05/26 12:30:48;;;;;;;11.47;6.10;;;15.40;91.60;;;;;;4981766;28;20283;-80
2022/05/26 12:33:27;;;;;;;12.90;6.03;;;15.30;91.40;;;;;;4993241;28;20172;-82
2022/05/26 12:36:18;;;;;;;11.70;6.20;;;15.20;91.30;;;;;;4992967;28;20575;-79
2022/05/26 12:38:54;;;;;;;8.40;6.17;;;15.20;91.60;;;;;;4992160;28;20217;-79
2022/05/26 12:41:47;;;;;;;13.17;6.40;;;15.20;91.60;;;;;;4986152;28;20184;-80
2022/05/26 12:44:23;;;;;;;12.43;7.40;;;15.20;91.80;;;;;;4993422;28;20170;-78
2022/05/26 12:46:56;;;;;;;15.43;7.83;;;15.20;91.90;;;;;;4988402;28;20182;-80
2022/05/26 12:49:54;;;;;;;11.50;8.10;;;15.20;91.90;;;;;;4992565;28;20229;-79
2022/05/26 12:52:31;;;;;;;10.97;6.40;;;15.20;92.00;;;;;;4993069;28;20573;-80
2022/05/26 12:55:22;;;;;;;11.33;6.63;;;15.20;91.90;;;;;;4992880;28;20261;-81
2022/05/26 12:58:16;;;;;;;12.17;6.40;;;15.20;92.20;;;;;;4993302;28;20190;-80
2022/05/26 13:00:46;;;;;;;12.43;5.97;;;15.20;92.20;;;;;;4992841;28;20174;-81
2022/05/26 13:03:45;;;;;;;10.87;6.53;;;15.20;92.20;;;;;;4997417;28;20204;-79
2022/05/26 13:06:37;;;;;;;14.17;6.27;;;15.20;92.30;;;;;;4996538;28;20182;-80
2022/05/26 13:09:30;;;;;;;12.17;6.80;;;15.20;92.20;;;;;;4994362;28;20222;-77
2022/05/26 13:12:01;;;;;;;10.10;6.20;;;15.10;92.30;;;;;;4974972;28;20188;-81
2022/05/26 13:14:44;;;;;;;9.37;6.10;;;15.10;92.20;;;;;;4978856;28;20191;-81
2022/05/26 13:17:20;;;;;;;10.47;6.80;;;15.00;92.40;;;;;;4996615;28;20188;-78
2022/05/26 13:19:56;;;;;;;11.53;6.20;;;15.10;92.60;;;;;;4996635;28;20269;-77
2022/05/26 13:22:29;;;;;;;13.13;6.23;;;15.10;92.60;;;;;;4979324;28;20172;-79
2022/05/26 13:25:09;;;;;;;10.53;6.00;;;15.10;92.60;;;;;;4996529;28;20170;-78
2022/05/26 13:28:01;;;;;;;11.77;6.37;;;15.10;92.60;;;;;;4996741;28;20227;-79
2022/05/26 13:33:26;;;;;;;14.07;7.57;;;15.00;92.50;;;;;;4996971;28;20185;-81
2022/05/26 13:35:59;;;;;;;12.00;6.60;;;15.00;92.60;;;;;;4995615;28;20222;-77
2022/05/26 13:38:35;;;;;;;7.23;5.57;;;14.90;92.50;;;;;;4996343;28;20549;-80
2022/05/26 13:41:05;;;;;;;10.67;6.90;;;14.80;92.50;;;;;;4978191;28;20191;-77
2022/05/26 13:43:36;;;;;;;11.37;7.50;;;14.90;92.60;;;;;;4990901;28;20173;-77
2022/05/26 13:46:07;;;;;;;10.63;7.20;;;14.80;92.70;;;;;;4995496;28;20190;-79
2022/05/26 13:48:43;;;;;;;8.90;6.60;;;14.80;92.70;;;;;;4996320;28;20239;-77
2022/05/26 13:51:15;;;;;;;15.73;8.20;;;14.80;92.70;;;;;;4996612;28;20521;-77
2022/05/26 13:53:48;;;;;;;12.20;7.07;;;14.80;92.80;;;;;;4999675;28;20277;-79
2022/05/26 13:56:31;;;;;;;14.60;7.20;;;14.80;92.80;;;;;;4993300;28;20179;-76
2022/05/26 13:59:11;;;;;;;8.80;7.20;;;14.80;92.80;;;;;;4980513;28;20176;-81
2022/05/26 14:01:48;;;;;;;12.90;7.40;;;14.70;92.70;;;;;;4996419;28;20731;-80
2022/05/26 14:04:24;;;;;;;16.00;7.87;;;14.70;92.80;;;;;;4993009;28;20284;-81
2022/05/26 14:06:51;;;;;;;11.43;7.47;;;14.70;92.90;;;;;;4996303;28;20245;-81
2022/05/26 14:09:30;;;;;;;10.57;6.87;;;14.60;92.70;;;;;;4992818;28;20222;-77
2022/05/26 14:12:04;;;;;;;10.83;7.43;;;14.60;92.70;;;;;;4976254;28;20186;-77
2022/05/26 14:14:37;;;;;;;12.73;8.03;;;14.60;93.10;;;;;;4992959;28;20177;-77
2022/05/26 14:17:08;;;;;;;12.93;7.93;;;14.60;92.90;;;;;;4996141;28;20261;-80
2022/05/26 14:19:47;;;;;;;17.27;8.33;;;14.70;93.20;;;;;;4995520;28;20655;-81
2022/05/26 14:22:23;;;;;;;15.10;7.40;;;14.60;92.90;;;;;;4994027;28;20178;-79
2022/05/26 14:24:53;;;;;;;21.37;8.03;;;14.50;92.80;;;;;;4992839;28;20178;-80
2022/05/26 14:27:27;;;;;;;14.60;8.00;;;14.50;92.80;;;;;;4994737;28;20736;-80
2022/05/26 14:30:23;;;;;;;12.87;8.50;;;14.40;93.00;;;;;;5002863;28;20268;-78
2022/05/26 14:32:50;;;;;;;17.70;9.83;;;14.40;93.00;;;;;;4990973;28;20236;-82
2022/05/26 14:35:19;;;;;;;10.57;7.60;;;14.40;93.00;;;;;;4995168;28;20185;-81
2022/05/26 14:37:47;;;;;;;10.77;7.37;;;14.40;93.00;;;;;;5006363;28;20247;-81
2022/05/26 14:40:15;;;;;;;10.57;7.23;;;14.30;92.90;;;;;;4991400;28;20734;-80
2022/05/26 14:42:45;;;;;;;9.70;7.07;;;14.20;92.80;;;;;;4994127;28;20162;-76
2022/05/26 14:45:14;;;;;;;10.80;7.27;;;14.20;92.90;;;;;;5003386;28;20261;-81
2022/05/26 14:47:42;;;;;;;8.30;6.53;;;14.20;92.80;;;;;;4995674;28;20284;-80
2022/05/26 14:50:12;;;;;;;14.03;7.63;;;14.10;92.80;;;;;;4994105;28;20272;-78
2022/05/26 14:52:43;;;;;;;18.53;8.17;;;14.10;93.00;;;;;;4995176;28;20225;-79
2022/05/26 14:55:29;;;;;;;12.20;7.47;;;14.10;93.00;;;;;;4995252;28;20616;-81
2022/05/26 14:58:02;;;;;;;13.17;8.27;;;14.10;93.10;;;;;;4987927;28;20598;-77
2022/05/26 15:00:37;;;;;;;16.50;8.33;;;14.00;93.00;;;;;;4987810;28;20183;-81
2022/05/26 15:03:08;;;;;;;15.17;8.17;;;14.00;92.90;;;;;;4993729;28;20201;-79
2022/05/26 15:05:38;;;;;;;16.83;8.47;;;14.00;92.90;;;;;;4992737;28;20272;-80
2022/05/26 15:08:41;;;;;;;9.33;7.10;;;14.00;93.00;;;;;;4994757;28;20684;-78
2022/05/26 15:11:17;;;;;;;12.77;9.43;;;14.00;93.20;;;;;;4994237;28;20559;-80
2022/05/26 15:13:46;;;;;;;12.47;8.60;;;14.00;93.10;;;;;;4994665;28;20186;-79
2022/05/26 15:16:18;;;;;;;12.07;8.13;;;14.00;93.20;;;;;;4992811;28;20181;-79
2022/05/26 15:18:46;;;;;;;14.83;9.57;;;14.00;93.20;;;;;;4983614;28;20597;-78
2022/05/26 15:21:13;;;;;;;12.83;8.40;;;14.00;93.30;;;;;;4982814;28;20658;-78
2022/05/26 15:23:40;;;;;;;15.23;9.17;;;14.00;93.30;;;;;;4974447;28;20185;-77
2022/05/26 15:26:08;;;;;;;14.17;9.57;;;14.00;93.20;;;;;;4992966;28;20202;-79
2022/05/26 15:28:45;;;;;;;17.43;8.40;;;14.00;93.20;;;;;;4994287;28;20749;-77
2022/05/26 15:31:13;;;;;;;17.93;9.13;;;13.90;93.20;;;;;;4994438;28;20201;-80
2022/05/26 15:33:41;;;;;;;16.87;9.10;;;14.00;93.50;;;;;;4994277;28;20312;-80
2022/05/26 15:36:10;;;;;;;13.40;10.07;;;14.00;93.50;;;;;;4994329;28;20653;-81
2022/05/26 15:38:42;;;;;;;16.83;9.70;;;14.00;93.50;;;;;;4992940;28;20178;-78
2022/05/26 15:41:11;;;;;;;11.40;8.80;;;14.10;93.60;;;;;;4992967;28;20188;-79
2022/05/26 15:43:39;;;;;;;13.50;9.70;;;14.00;93.50;;;;;;4998045;28;20224;-80
2022/05/26 15:46:15;;;;;;;17.33;8.83;;;14.00;93.50;;;;;;5002620;28;20650;-77
2022/05/26 15:48:44;;;;;;;10.93;7.83;;;13.90;93.30;;;;;;4991859;28;20692;-81
2022/05/26 15:51:11;;;;;;;11.73;7.80;;;13.70;92.90;;;;;;4992875;28;20671;-78
2022/05/26 15:53:39;;;;;;;13.73;8.40;;;13.70;93.20;;;;;;5003356;28;20234;-81
2022/05/26 15:56:09;;;;;;;13.93;8.10;;;13.70;93.30;;;;;;5002883;28;20266;-79
2022/05/26 15:58:37;;;;;;;10.57;7.93;;;13.70;93.30;;;;;;4993474;28;20650;-79
2022/05/26 16:01:04;;;;;;;12.40;9.07;;;13.70;93.50;;;;;;5004656;28;20611;-77
2022/05/26 16:03:31;;;;;;;13.40;8.40;;;13.70;93.40;;;;;;5009937;28;20641;-79
2022/05/26 16:05:59;;;;;;;17.30;8.77;;;13.70;93.40;;;;;;5011541;28;20295;-78
2022/05/26 16:08:26;;;;;;;15.43;9.03;;;13.70;93.40;;;;;;5012490;28;20208;-77
2022/05/26 16:10:54;;;;;;;22.57;10.00;;;13.70;93.60;;;;;;4983020;28;20201;-79
2022/05/26 16:13:21;;;;;;;15.53;9.90;;;13.70;93.50;;;;;;4989893;28;20297;-77